createdAt,value
2022-12-26T00:00:22.575Z,85.00
2022-12-26T00:02:56.500Z,84.53
2022-12-26T00:05:30.628Z,89.87
2022-12-26T00:08:04.692Z,89.37
2022-12-26T00:10:38.780Z,92.70
2022-12-26T00:13:39.195Z,85.47
2022-12-26T00:16:12.487Z,90.17
2022-12-26T00:18:47.005Z,87.50
2022-12-26T00:21:22.756Z,92.90
2022-12-26T00:23:56.835Z,90.80
2022-12-26T00:26:31.858Z,95.43
2022-12-26T00:29:06.165Z,101.93
2022-12-26T00:31:43.402Z,92.27
2022-12-26T00:34:17.636Z,91.73
2022-12-26T00:36:51.479Z,98.57
2022-12-26T00:39:25.452Z,93.17
2022-12-26T00:41:59.399Z,93.70
2022-12-26T00:44:33.592Z,97.70
2022-12-26T00:47:09.647Z,94.43
2022-12-26T00:50:12.577Z,94.97
2022-12-26T00:52:39.241Z,88.07
2022-12-26T00:55:14.034Z,83.17
2022-12-26T00:57:48.235Z,90.03
2022-12-26T01:00:22.508Z,99.27
2022-12-26T01:02:58.425Z,83.53
2022-12-26T01:05:32.778Z,112.90
2022-12-26T01:08:23.140Z,93.53
2022-12-26T01:10:57.946Z,108.00
2022-12-26T01:13:31.746Z,107.50
2022-12-26T01:16:06.281Z,100.03
2022-12-26T01:18:45.252Z,116.20
2022-12-26T01:21:21.058Z,105.43
2022-12-26T01:23:54.979Z,109.60
2022-12-26T01:26:29.083Z,113.63
2022-12-26T01:29:03.361Z,122.83
2022-12-26T01:31:37.544Z,104.33
2022-12-26T01:34:13.776Z,102.07
2022-12-26T01:36:47.493Z,105.90
2022-12-26T01:39:21.370Z,110.23
2022-12-26T01:41:55.544Z,101.07
2022-12-26T01:45:00.349Z,94.43
2022-12-26T01:47:45.303Z,92.90
2022-12-26T01:50:32.045Z,89.93
2022-12-26T01:53:09.305Z,82.20
2022-12-26T01:55:48.342Z,83.70
2022-12-26T01:58:29.323Z,91.13
2022-12-26T02:01:05.728Z,86.57
2022-12-26T02:03:57.573Z,81.90
2022-12-26T02:06:33.447Z,84.70
2022-12-26T02:09:08.188Z,76.67
2022-12-26T02:11:45.428Z,74.80
2022-12-26T02:14:19.834Z,74.67
2022-12-26T02:16:53.931Z,76.57
2022-12-26T02:19:39.309Z,77.73
2022-12-26T02:22:44.464Z,77.80
2022-12-26T02:25:40.153Z,77.63
2022-12-26T02:28:36.228Z,71.33
2022-12-26T02:31:17.810Z,84.80
2022-12-26T02:34:03.140Z,63.90
2022-12-26T02:36:54.523Z,67.43
2022-12-26T02:39:46.413Z,68.53
2022-12-26T02:42:29.184Z,59.17
2022-12-26T02:45:29.489Z,60.43
2022-12-26T02:48:11.571Z,61.97
2022-12-26T02:51:13.654Z,60.90
2022-12-26T02:54:11.418Z,69.87
2022-12-26T02:57:09.689Z,54.37
2022-12-26T03:00:18.004Z,55.80
2022-12-26T03:03:20.036Z,55.70
2022-12-26T03:06:16.021Z,48.20
2022-12-26T03:09:11.084Z,51.73
2022-12-26T03:12:02.813Z,43.07
2022-12-26T03:14:42.441Z,42.60
2022-12-26T03:17:27.229Z,39.67
2022-12-26T03:20:04.111Z,50.00
2022-12-26T03:22:46.317Z,45.23
2022-12-26T03:25:47.112Z,46.03
2022-12-26T03:28:22.799Z,42.80
2022-12-26T03:30:56.175Z,39.87
2022-12-26T03:33:47.366Z,45.53
2022-12-26T03:36:30.896Z,47.47
2022-12-26T03:39:17.900Z,53.70
2022-12-26T03:42:18.455Z,47.17
2022-12-26T03:45:13.246Z,49.10
2022-12-26T03:48:14.742Z,46.10
2022-12-26T03:51:09.677Z,60.43
2022-12-26T03:54:08.241Z,56.37
2022-12-26T03:57:06.668Z,51.20
2022-12-26T04:00:04.946Z,51.80
2022-12-26T04:03:04.364Z,46.90
2022-12-26T04:05:59.544Z,49.53
2022-12-26T04:08:57.910Z,53.10
2022-12-26T04:11:49.187Z,49.10
2022-12-26T04:14:55.563Z,49.40
2022-12-26T04:17:53.906Z,42.73
2022-12-26T04:20:35.363Z,46.50
2022-12-26T04:23:31.012Z,45.47
2022-12-26T04:26:27.891Z,43.70
2022-12-26T04:29:19.754Z,33.57
2022-12-26T04:32:23.229Z,36.83
2022-12-26T04:35:19.737Z,35.13
2022-12-26T04:38:15.189Z,40.67
2022-12-26T04:41:16.635Z,40.47
2022-12-26T04:44:13.850Z,39.07
2022-12-26T04:46:52.640Z,40.87
2022-12-26T04:49:48.641Z,29.13
2022-12-26T04:52:25.339Z,32.50
2022-12-26T04:55:01.502Z,35.27
2022-12-26T04:57:37.722Z,34.53
2022-12-26T05:00:14.719Z,37.30
2022-12-26T05:03:06.125Z,39.67
2022-12-26T05:06:10.581Z,33.53
2022-12-26T05:09:03.668Z,32.30
2022-12-26T05:11:44.163Z,36.93
2022-12-26T05:14:20.498Z,39.23
2022-12-26T05:17:11.113Z,37.30
2022-12-26T05:19:59.027Z,37.90
2022-12-26T05:22:57.034Z,40.13
2022-12-26T05:25:50.286Z,38.60
2022-12-26T05:28:41.794Z,34.27
2022-12-26T05:31:21.046Z,37.93
2022-12-26T05:34:12.385Z,37.97
2022-12-26T05:36:50.747Z,35.17
2022-12-26T05:39:29.067Z,38.80
2022-12-26T05:42:05.050Z,40.63
2022-12-26T05:44:41.026Z,43.17
2022-12-26T05:47:17.043Z,36.50
2022-12-26T05:49:52.975Z,40.13
2022-12-26T05:52:30.028Z,39.93
2022-12-26T05:55:09.193Z,41.97
2022-12-26T05:57:46.464Z,40.13
2022-12-26T06:00:24.326Z,39.93
2022-12-26T06:03:00.876Z,40.53
2022-12-26T06:05:36.827Z,37.57
2022-12-26T06:08:13.109Z,38.07
2022-12-26T06:10:52.452Z,42.97
2022-12-26T06:13:29.252Z,40.27
2022-12-26T06:16:08.619Z,39.77
2022-12-26T06:18:44.534Z,36.77
2022-12-26T06:21:22.878Z,44.37
2022-12-26T06:23:58.915Z,38.17
2022-12-26T06:26:38.104Z,41.40
2022-12-26T06:29:15.054Z,38.53
2022-12-26T06:31:51.843Z,36.83
2022-12-26T06:34:31.949Z,39.30
2022-12-26T06:37:09.811Z,38.37
2022-12-26T06:39:47.114Z,42.80
2022-12-26T06:42:25.607Z,41.67
2022-12-26T06:45:01.762Z,38.13
2022-12-26T06:47:38.056Z,45.70
2022-12-26T06:50:14.224Z,43.13
2022-12-26T06:52:50.671Z,36.77
2022-12-26T06:55:26.701Z,49.07
2022-12-26T06:58:05.066Z,46.03
2022-12-26T07:00:41.322Z,62.97
2022-12-26T07:03:18.348Z,37.77
2022-12-26T07:05:54.417Z,35.87
2022-12-26T07:08:31.075Z,45.20
2022-12-26T07:11:07.558Z,44.07
2022-12-26T07:13:45.813Z,42.70
2022-12-26T07:16:22.550Z,43.43
2022-12-26T07:19:00.607Z,47.87
2022-12-26T07:21:40.686Z,47.10
2022-12-26T07:24:21.884Z,47.57
2022-12-26T07:26:57.925Z,40.60
2022-12-26T07:29:36.837Z,48.70
2022-12-26T07:32:13.673Z,38.60
2022-12-26T07:34:49.938Z,55.70
2022-12-26T07:37:25.919Z,46.30
2022-12-26T07:40:05.178Z,48.03
2022-12-26T07:42:43.375Z,45.07
2022-12-26T07:45:21.726Z,39.97
2022-12-26T07:48:00.870Z,45.10
2022-12-26T07:50:36.803Z,43.50
2022-12-26T07:53:13.069Z,47.93
2022-12-26T07:55:49.934Z,47.77
2022-12-26T07:58:25.439Z,48.20
2022-12-26T08:01:06.437Z,50.23
2022-12-26T08:03:42.846Z,40.70
2022-12-26T08:06:19.312Z,45.43
2022-12-26T08:08:56.623Z,46.83
2022-12-26T08:11:34.008Z,42.87
2022-12-26T08:14:10.225Z,49.37
2022-12-26T08:16:53.253Z,45.10
2022-12-26T08:19:29.273Z,44.67
2022-12-26T08:22:04.961Z,42.07
2022-12-26T08:24:41.846Z,43.43
2022-12-26T08:27:18.318Z,47.83
2022-12-26T08:29:55.908Z,36.97
2022-12-26T08:32:34.895Z,40.53
2022-12-26T08:35:11.939Z,42.97
2022-12-26T08:37:47.446Z,41.10
2022-12-26T08:40:42.017Z,44.90
2022-12-26T08:43:36.920Z,46.77
2022-12-26T08:46:16.453Z,38.77
2022-12-26T08:48:55.953Z,38.03
2022-12-26T08:51:32.585Z,51.60
2022-12-26T08:54:09.245Z,48.07
2022-12-26T08:56:44.776Z,41.83
2022-12-26T08:59:20.431Z,44.87
2022-12-26T09:01:55.604Z,43.93
2022-12-26T09:04:34.209Z,43.10
2022-12-26T09:07:20.671Z,45.80
2022-12-26T09:09:57.116Z,56.40
2022-12-26T09:12:33.133Z,47.73
2022-12-26T09:15:09.116Z,56.97
2022-12-26T09:17:43.674Z,52.57
2022-12-26T09:20:20.556Z,46.03
2022-12-26T09:22:57.114Z,46.17
2022-12-26T09:25:32.520Z,51.40
2022-12-26T09:28:07.424Z,50.83
2022-12-26T09:30:44.194Z,50.53
2022-12-26T09:33:20.117Z,50.50
2022-12-26T09:36:03.406Z,46.53
2022-12-26T09:38:40.800Z,52.60
2022-12-26T09:41:36.069Z,45.97
2022-12-26T09:44:17.599Z,47.90
2022-12-26T09:47:05.547Z,52.83
2022-12-26T09:49:43.224Z,52.83
2022-12-26T09:52:24.063Z,53.63
2022-12-26T09:55:03.241Z,56.67
2022-12-26T09:57:44.546Z,44.10
2022-12-26T10:00:28.024Z,51.63
2022-12-26T10:03:04.183Z,56.70
2022-12-26T10:05:46.482Z,56.33
2022-12-26T10:08:57.067Z,56.17
2022-12-26T10:11:42.390Z,69.70
2022-12-26T10:14:25.918Z,64.20
2022-12-26T10:17:07.228Z,63.80
2022-12-26T10:19:53.324Z,56.40
2022-12-26T10:22:48.708Z,62.70
2022-12-26T10:25:33.700Z,60.60
2022-12-26T10:28:11.061Z,54.87
2022-12-26T10:30:49.871Z,59.80
2022-12-26T10:33:30.616Z,65.17
2022-12-26T10:36:07.363Z,62.83
2022-12-26T10:38:45.641Z,60.27
2022-12-26T10:41:29.145Z,63.30
2022-12-26T10:44:05.608Z,66.83
2022-12-26T10:47:01.525Z,70.20
2022-12-26T10:49:38.015Z,67.93
2022-12-26T10:52:16.178Z,61.70
2022-12-26T10:55:27.032Z,67.43
2022-12-26T10:57:57.964Z,79.23
2022-12-26T11:00:35.674Z,65.37
2022-12-26T11:03:14.561Z,62.70
2022-12-26T11:06:08.827Z,55.50
2022-12-26T11:08:53.134Z,64.40
2022-12-26T11:11:47.271Z,65.20
2022-12-26T11:14:41.586Z,65.23
2022-12-26T11:17:28.859Z,62.07
2022-12-26T11:20:28.474Z,65.07
2022-12-26T11:23:26.466Z,79.50
2022-12-26T11:26:03.962Z,62.47
2022-12-26T11:28:42.584Z,62.03
2022-12-26T11:31:29.288Z,62.67
2022-12-26T11:34:06.791Z,63.33
2022-12-26T11:36:45.983Z,70.53
2022-12-26T11:39:29.536Z,62.57
2022-12-26T11:42:05.996Z,66.10
2022-12-26T11:44:47.185Z,61.50
2022-12-26T11:47:27.268Z,63.93
2022-12-26T11:50:09.324Z,66.80
2022-12-26T11:52:47.610Z,66.50
2022-12-26T11:55:39.086Z,59.50
2022-12-26T11:58:24.117Z,68.17
2022-12-26T12:01:20.865Z,68.77
2022-12-26T12:04:00.759Z,67.93
2022-12-26T12:06:54.394Z,67.53
2022-12-26T12:09:38.344Z,59.47
2022-12-26T12:12:24.139Z,62.63
2022-12-26T12:15:11.705Z,65.57
2022-12-26T12:17:53.052Z,64.17
2022-12-26T12:20:41.823Z,54.57
2022-12-26T12:23:39.106Z,59.73
2022-12-26T12:26:20.513Z,62.03
2022-12-26T12:29:25.567Z,61.93
2022-12-26T12:32:23.095Z,59.20
2022-12-26T12:35:28.363Z,56.17
2022-12-26T12:38:27.788Z,68.10
2022-12-26T12:41:16.830Z,65.80
2022-12-26T12:44:08.630Z,54.90
2022-12-26T12:46:55.880Z,59.50
2022-12-26T12:49:48.643Z,57.83
2022-12-26T12:52:40.152Z,62.07
2022-12-26T12:55:39.238Z,60.07
2022-12-26T12:58:26.355Z,59.63
2022-12-26T13:01:07.501Z,63.60
2022-12-26T13:03:52.961Z,63.27
2022-12-26T13:06:34.963Z,63.80
2022-12-26T13:09:19.600Z,54.63
2022-12-26T13:12:03.150Z,59.47
2022-12-26T13:14:45.558Z,54.13
2022-12-26T13:17:26.262Z,52.67
2022-12-26T13:20:06.668Z,56.67
2022-12-26T13:25:57.891Z,54.87
2022-12-26T13:28:44.954Z,60.33
2022-12-26T13:31:21.217Z,59.13
2022-12-26T13:33:58.104Z,61.10
2022-12-26T13:36:58.404Z,55.63
2022-12-26T13:39:45.734Z,61.83
2022-12-26T13:42:50.928Z,58.97
2022-12-26T13:45:59.980Z,67.10
2022-12-26T13:49:04.811Z,70.80
2022-12-26T13:51:59.497Z,65.10
2022-12-26T13:54:36.850Z,68.03
2022-12-26T13:57:46.602Z,63.27
2022-12-26T14:00:46.651Z,66.67
2022-12-26T14:03:36.300Z,67.70
2022-12-26T14:06:46.485Z,73.37
2022-12-26T14:09:40.613Z,71.47
2022-12-26T14:12:46.325Z,83.07
2022-12-26T14:15:35.471Z,77.57
2022-12-26T14:18:35.253Z,66.17
2022-12-26T14:21:38.787Z,71.87
2022-12-26T14:24:31.465Z,78.73
2022-12-26T14:27:31.395Z,66.80
2022-12-26T14:30:24.655Z,64.30
2022-12-26T14:33:30.492Z,73.57
2022-12-26T14:36:21.444Z,76.37
2022-12-26T14:39:05.472Z,79.30
2022-12-26T14:42:27.731Z,84.23
2022-12-26T14:45:05.365Z,73.33
2022-12-26T14:47:53.376Z,80.87
2022-12-26T14:50:53.384Z,78.73
2022-12-26T14:53:46.300Z,75.60
2022-12-26T14:56:42.376Z,80.33
2022-12-26T14:59:33.463Z,90.53
2022-12-26T15:02:16.993Z,86.70
2022-12-26T15:05:09.509Z,83.83
2022-12-26T15:08:24.085Z,95.97
2022-12-26T15:11:45.155Z,80.63
2022-12-26T15:14:51.508Z,79.17
2022-12-26T15:17:35.777Z,92.53
2022-12-26T15:20:48.899Z,83.57
2022-12-26T15:23:50.821Z,78.43
2022-12-26T15:27:02.875Z,84.70
2022-12-26T15:30:08.649Z,89.57
2022-12-26T15:32:51.389Z,83.23
2022-12-26T15:35:44.325Z,76.53
2022-12-26T15:38:31.316Z,79.43
2022-12-26T15:41:19.911Z,84.77
2022-12-26T15:44:06.295Z,74.53
2022-12-26T15:46:52.265Z,84.03
2022-12-26T15:49:48.832Z,81.97
2022-12-26T15:52:38.262Z,87.17
2022-12-26T15:55:44.923Z,86.40
2022-12-26T15:58:39.330Z,76.60
2022-12-26T16:01:38.000Z,90.73
2022-12-26T16:04:21.855Z,78.10
2022-12-26T16:07:14.094Z,85.53
2022-12-26T16:09:50.373Z,75.60
2022-12-26T16:12:29.341Z,86.73
2022-12-26T16:15:22.110Z,81.83
2022-12-26T16:17:58.447Z,82.83
2022-12-26T16:20:52.704Z,82.23
2022-12-26T16:23:29.053Z,87.70
2022-12-26T16:26:04.660Z,87.00
2022-12-26T16:28:43.789Z,84.73
2022-12-26T16:31:23.708Z,94.47
2022-12-26T16:34:01.755Z,90.03
2022-12-26T16:36:38.641Z,79.07
2022-12-26T16:39:15.943Z,81.33
2022-12-26T16:42:04.814Z,91.37
2022-12-26T16:44:43.017Z,81.40
2022-12-26T16:47:19.525Z,89.63
2022-12-26T16:49:55.803Z,94.83
2022-12-26T16:52:46.260Z,95.70
2022-12-26T16:55:38.878Z,86.53
2022-12-26T16:58:26.204Z,86.50
2022-12-26T17:01:08.948Z,93.63
2022-12-26T17:03:57.225Z,81.20
2022-12-26T17:06:35.559Z,81.80
2022-12-26T17:09:16.909Z,82.97
2022-12-26T17:11:58.010Z,83.50
2022-12-26T17:14:35.952Z,87.50
2022-12-26T17:17:11.546Z,85.33
2022-12-26T17:19:49.049Z,83.57
2022-12-26T17:22:34.816Z,82.90
2022-12-26T17:25:28.072Z,85.77
2022-12-26T17:28:32.156Z,81.53
2022-12-26T17:31:18.064Z,78.70
2022-12-26T17:33:52.368Z,79.80
2022-12-26T17:37:17.390Z,83.83
2022-12-26T17:39:32.670Z,85.37
2022-12-26T17:42:07.308Z,80.10
2022-12-26T17:44:46.862Z,84.27
2022-12-26T17:47:27.225Z,91.43
2022-12-26T17:50:01.770Z,79.77
2022-12-26T17:52:36.786Z,75.80
2022-12-26T17:55:21.410Z,82.20
2022-12-26T17:57:55.462Z,81.23
2022-12-26T18:00:31.348Z,73.90
2022-12-26T18:03:05.573Z,75.83
2022-12-26T18:05:40.258Z,76.50
2022-12-26T18:08:25.704Z,75.60
2022-12-26T18:11:01.857Z,69.67
2022-12-26T18:13:36.244Z,62.53
2022-12-26T18:16:11.089Z,75.33
2022-12-26T18:18:47.427Z,71.60
2022-12-26T18:21:21.505Z,76.17
2022-12-26T18:23:55.503Z,63.63
2022-12-26T18:26:33.188Z,72.73
2022-12-26T18:29:07.050Z,67.10
2022-12-26T18:31:40.931Z,71.40
2022-12-26T18:34:14.738Z,74.00
2022-12-26T18:36:49.455Z,73.93
2022-12-26T18:39:26.606Z,61.00
2022-12-26T18:42:02.613Z,65.63
2022-12-26T18:44:36.785Z,73.47
2022-12-26T18:47:10.974Z,60.37
2022-12-26T18:49:44.932Z,62.33
2022-12-26T18:52:19.720Z,57.50
2022-12-26T18:54:53.454Z,56.63
2022-12-26T18:57:29.352Z,60.33
2022-12-26T19:00:03.483Z,63.17
2022-12-26T19:02:37.496Z,62.00
2022-12-26T19:05:15.534Z,68.60
2022-12-26T19:07:49.852Z,63.00
2022-12-26T19:10:25.814Z,59.13
2022-12-26T19:13:06.412Z,59.50
2022-12-26T19:15:41.879Z,63.00
2022-12-26T19:18:16.146Z,60.03
2022-12-26T19:20:50.614Z,62.13
2022-12-26T19:23:24.768Z,58.20
2022-12-26T19:25:58.857Z,73.83
2022-12-26T19:28:34.592Z,65.67
2022-12-26T19:31:12.576Z,66.80
2022-12-26T19:33:46.946Z,68.67
2022-12-26T19:36:21.056Z,71.07
2022-12-26T19:38:57.163Z,84.87
2022-12-26T19:41:31.141Z,79.90
2022-12-26T19:44:07.338Z,80.90
2022-12-26T19:46:41.250Z,79.57
2022-12-26T19:49:15.203Z,81.97
2022-12-26T19:51:50.358Z,88.00
2022-12-26T19:54:24.385Z,83.97
2022-12-26T19:56:58.452Z,86.77
2022-12-26T19:59:34.134Z,84.40
2022-12-26T20:02:08.548Z,82.60
2022-12-26T20:04:42.565Z,83.10
2022-12-26T20:07:16.677Z,85.23
2022-12-26T20:09:50.627Z,87.67
2022-12-26T20:12:24.459Z,86.83
2022-12-26T20:15:00.132Z,84.43
2022-12-26T20:17:34.259Z,84.47
2022-12-26T20:20:08.342Z,83.20
2022-12-26T20:22:42.181Z,83.93
2022-12-26T20:25:16.015Z,89.67
2022-12-26T20:27:50.123Z,89.20
2022-12-26T20:30:25.967Z,83.90
2022-12-26T20:32:59.882Z,81.10
2022-12-26T20:35:34.037Z,84.47
2022-12-26T20:38:09.311Z,77.63
2022-12-26T20:40:49.903Z,79.07
2022-12-26T20:43:25.591Z,81.63
2022-12-26T20:46:07.128Z,82.87
2022-12-26T20:48:42.095Z,81.37
2022-12-26T20:51:18.274Z,75.93
2022-12-26T20:53:52.485Z,77.10
2022-12-26T20:56:26.523Z,74.87
2022-12-26T20:59:01.191Z,81.67
2022-12-26T21:01:38.280Z,81.50
2022-12-26T21:04:13.067Z,81.63
2022-12-26T21:06:47.784Z,82.40
2022-12-26T21:09:21.893Z,91.33
2022-12-26T21:11:55.579Z,82.80
2022-12-26T21:14:29.315Z,88.50
2022-12-26T21:17:05.195Z,95.37
2022-12-26T21:19:39.456Z,87.63
2022-12-26T21:22:13.824Z,87.20
2022-12-26T21:24:47.826Z,89.27
2022-12-26T21:27:21.954Z,91.53
2022-12-26T21:29:55.978Z,95.30
2022-12-26T21:32:31.850Z,92.03
2022-12-26T21:35:06.033Z,83.33
2022-12-26T21:37:53.194Z,90.80
2022-12-26T21:40:29.274Z,93.30
2022-12-26T21:43:03.099Z,96.13
2022-12-26T21:45:37.005Z,96.83
2022-12-26T21:48:14.337Z,88.47
2022-12-26T21:50:50.330Z,86.40
2022-12-26T21:53:24.963Z,92.17
2022-12-26T21:55:57.532Z,89.40
2022-12-26T21:58:31.696Z,94.50
2022-12-26T22:01:05.926Z,90.30
2022-12-26T22:04:00.305Z,86.23
2022-12-26T22:06:34.451Z,95.77
2022-12-26T22:09:10.087Z,94.77
2022-12-26T22:11:59.669Z,91.27
2022-12-26T22:14:34.021Z,93.67
2022-12-26T22:17:07.931Z,96.60
2022-12-26T22:19:43.810Z,89.07
2022-12-26T22:22:17.796Z,89.50
2022-12-26T22:24:51.773Z,96.33
2022-12-26T22:27:25.905Z,86.13
2022-12-26T22:29:59.877Z,91.43
2022-12-26T22:32:34.077Z,86.80
2022-12-26T22:35:16.531Z,91.40
2022-12-26T22:37:52.643Z,94.37
2022-12-26T22:40:26.921Z,89.37
2022-12-26T22:43:01.202Z,90.57
2022-12-26T22:45:35.358Z,100.07
2022-12-26T22:48:09.407Z,86.60
2022-12-26T22:50:48.067Z,85.83
2022-12-26T22:53:22.358Z,89.87
2022-12-26T22:56:02.992Z,87.10
2022-12-26T22:58:38.053Z,85.40
2022-12-26T23:01:18.146Z,82.50
2022-12-26T23:03:52.435Z,88.40
2022-12-26T23:06:30.475Z,89.40
2022-12-26T23:09:06.652Z,87.40
2022-12-26T23:11:41.386Z,81.17
2022-12-26T23:14:18.215Z,84.80
2022-12-26T23:16:58.556Z,83.87
2022-12-26T23:19:59.700Z,80.90
2022-12-26T23:22:35.966Z,75.87
2022-12-26T23:25:10.133Z,81.00
2022-12-26T23:28:00.281Z,86.33
2022-12-26T23:30:34.804Z,83.27
2022-12-26T23:33:08.769Z,81.50
2022-12-26T23:35:42.984Z,81.90
2022-12-26T23:38:18.492Z,85.87
2022-12-26T23:40:52.250Z,74.10
2022-12-26T23:43:26.145Z,72.33
2022-12-26T23:46:00.003Z,79.70
2022-12-26T23:48:34.116Z,75.97
2022-12-26T23:51:09.531Z,81.23
2022-12-26T23:53:45.549Z,74.97
2022-12-26T23:56:19.388Z,78.13
2022-12-26T23:58:53.319Z,77.73
